EPKK Airport Information

Runway Information
Runway 07 Length 8366 ft width 197 ft
Elevation 792 ft Threshold 0 ft Heading 78
Runway 25 Length 8366 ft Width 197 ft
Elevation 779 ft Threshold 784 ft Heading 258
Airport Frequencies
Type APP Name KRAKOW APP Frequency 121.075 MHZ
Type ATIS Name ATIS Frequency 126.125 MHZ
Type DIR Name KRAKOW DIR Frequency 123.8 MHZ
Type TWR Name KRAKOW DEL Frequency 118.1 MHZ
Type TWR Name KRAKOW TWR Frequency 123.25 MHZ
Airport Navaids
Type NDB Name Krakow Frequency 353 KHZ
Airport Weather Information & NOTAM
ADDS - METARS form results

(2103 UTC 17 November 2018)
Data provider http://aviationweather.gov/metar/data/
 
METAR text: EPKK 172100Z 05009KT CAVOK M02/M06 Q1034
Conditions at: EPKK (KRAKOW/BALICE , PL) observed 2100 UTC 17 November 2018
Temperature: -2.0°C (28°F)
Dewpoint: -6.0°C (21°F) [RH = 74%]
Pressure (altimeter): 30.53 inches Hg (1034.0 mb)
Winds: from the NE (50 degrees) at 10 MPH (9 knots; 4.6 m/s)
Visibility: 6 or more miles (10+ km)
Ceiling: ceiling and visibility are OK
Clouds: unknown
Weather: no significant weather observed at this time

METAR text: EPKK 172030Z 05008KT CAVOK M02/M06 Q1034
Conditions at: EPKK (KRAKOW/BALICE , PL) observed 2030 UTC 17 November 2018
Temperature: -2.0°C (28°F)
Dewpoint: -6.0°C (21°F) [RH = 74%]
Pressure (altimeter): 30.53 inches Hg (1034.0 mb)
Winds: from the NE (50 degrees) at 9 MPH (8 knots; 4.1 m/s)
Visibility: 6 or more miles (10+ km)
Ceiling: ceiling and visibility are OK
Clouds: unknown
Weather: no significant weather observed at this time

Forecast for: EPKK (KRAKOW/BALICE , PL)
Text: TAF EPKK 172030Z 1721/1821 06007KT CAVOK
Forecast period: 2100 UTC 17 November 2018 to 1500 UTC 18 November 2018
Forecast type: FROM: standard forecast or significant change
Winds: from the ENE (60 degrees) at 8 MPH (7 knots; 3.6 m/s)
Visibility: 6 or more miles 10+ km)
Ceiling: unknown
Clouds: missing
Weather: NSW  (no significant weather)
Text: PROB40
Forecast period: 0000 to 0900 UTC 18 November 2018
Forecast type: TEMPORARY: The following changes expected for less than half the time period
Visibility: missing
Ceiling: 1000 feet AGL
Clouds: broken clouds at 1000 feet AGL
Weather: no significant weather forecast for this period
Text: TEMPO 1800/1809 BKN010
Forecast period: 1500 to 2100 UTC 18 November 2018
Forecast type: BECOMING: Conditions expected to become as follows by 1800 UTC 18 November 2018
Winds: from the ENE (60 degrees) at 8 MPH (7 knots; 3.6 m/s)
Visibility: 6 or more miles 10+ km)
Ceiling: 1400 feet AGL
Clouds: broken clouds at 1400 feet AGL
Weather: NSW  (no significant weather)
Text: BECMG 1815/1818 BKN014
Forecast period: 1600 to 1800 UTC 18 November 2018
Forecast type: TEMPORARY: The following changes expected for less than half the time period
Visibility: 1.55 miles (2.49 km)
Ceiling: unknown
Clouds: missing
Weather: SN BR  (moderate snow, mist)